createdAt,value
2022-11-16T00:01:52.653Z,99375.91
2022-11-16T00:04:20.485Z,99381.47
2022-11-16T00:06:50.049Z,99381.25
2022-11-16T00:09:23.812Z,99382.03
2022-11-16T00:11:53.529Z,99377.22
2022-11-16T00:14:23.809Z,99372.25
2022-11-16T00:16:51.910Z,99370.16
2022-11-16T00:19:19.756Z,99366.97
2022-11-16T00:21:47.520Z,99366.97
2022-11-16T00:24:16.605Z,99372.66
2022-11-16T00:26:45.238Z,99360.69
2022-11-16T00:29:15.969Z,99374.25
2022-11-16T00:31:45.595Z,99363.81
2022-11-16T00:34:13.964Z,99366.13
2022-11-16T00:36:41.784Z,99365.91
2022-11-16T00:39:12.371Z,99356.09
2022-11-16T00:41:40.133Z,99358.66
2022-11-16T00:44:08.211Z,99364.78
2022-11-16T00:46:35.913Z,99360.16
2022-11-16T00:49:05.440Z,99363.13
2022-11-16T00:51:33.484Z,99361.53
2022-11-16T00:54:01.605Z,99367.50
2022-11-16T00:56:29.341Z,99366.53
2022-11-16T00:58:57.191Z,99355.47
2022-11-16T01:01:24.973Z,99356.59
2022-11-16T01:03:52.804Z,99360.34
2022-11-16T01:06:23.356Z,99353.28
2022-11-16T01:08:51.742Z,99345.03
2022-11-16T01:11:37.866Z,99341.94
2022-11-16T01:14:07.539Z,99339.53
2022-11-16T01:16:35.476Z,99329.69
2022-11-16T01:19:04.073Z,99326.94
2022-11-16T01:21:33.287Z,99328.41
2022-11-16T01:24:01.051Z,99326.72
2022-11-16T01:26:28.851Z,99323.50
2022-11-16T01:28:56.637Z,99325.41
2022-11-16T01:31:24.402Z,99313.88
2022-11-16T01:33:52.132Z,99315.94
2022-11-16T01:36:19.910Z,99306.66
2022-11-16T01:38:48.986Z,99305.81
2022-11-16T01:41:18.501Z,99301.50
2022-11-16T01:43:56.681Z,99307.47
2022-11-16T01:46:25.670Z,99304.19
2022-11-16T01:48:58.531Z,99305.19
2022-11-16T01:51:27.476Z,99303.19
2022-11-16T01:53:56.990Z,99302.03
2022-11-16T01:56:25.898Z,99287.16
2022-11-16T01:58:54.480Z,99298.03
2022-11-16T02:01:22.237Z,99291.91
2022-11-16T02:03:50.172Z,99294.06
2022-11-16T02:06:45.997Z,99288.78
2022-11-16T02:09:54.012Z,99286.00
2022-11-16T02:12:47.112Z,99278.78
2022-11-16T02:15:25.772Z,99273.66
2022-11-16T02:18:04.984Z,99275.34
2022-11-16T02:20:52.743Z,99274.97
2022-11-16T02:23:42.037Z,99269.38
2022-11-16T02:26:26.632Z,99274.78
2022-11-16T02:29:14.159Z,99270.66
2022-11-16T02:31:47.332Z,99272.69
2022-11-16T02:34:19.039Z,99269.56
2022-11-16T02:36:51.202Z,99266.03
2022-11-16T02:39:24.186Z,99260.72
2022-11-16T02:41:54.204Z,99258.31
2022-11-16T02:44:27.835Z,99266.44
2022-11-16T02:46:59.867Z,99260.97
2022-11-16T02:49:29.933Z,99258.47
2022-11-16T02:52:00.290Z,99258.72
2022-11-16T02:54:29.016Z,99260.66
2022-11-16T02:56:59.490Z,99251.03
2022-11-16T02:59:32.488Z,99253.75
2022-11-16T03:02:07.515Z,99256.19
2022-11-16T03:04:40.660Z,99242.13
2022-11-16T03:07:11.716Z,99243.38
2022-11-16T03:09:42.802Z,99249.63
2022-11-16T03:12:15.433Z,99245.84
2022-11-16T03:14:48.695Z,99243.97
2022-11-16T03:17:21.261Z,99230.06
2022-11-16T03:19:58.808Z,99228.03
2022-11-16T03:22:32.344Z,99222.13
2022-11-16T03:25:00.290Z,99223.00
2022-11-16T03:27:35.764Z,99222.91
2022-11-16T03:30:08.303Z,99218.81
2022-11-16T03:32:41.232Z,99209.91
2022-11-16T03:35:16.539Z,99219.06
2022-11-16T03:37:47.325Z,99216.84
2022-11-16T03:40:17.541Z,99220.75
2022-11-16T03:42:47.292Z,99250.88
2022-11-16T03:45:18.614Z,99244.66
2022-11-16T03:47:46.884Z,99233.88
2022-11-16T03:50:14.890Z,99226.91
2022-11-16T03:52:42.680Z,99221.59
2022-11-16T03:55:10.811Z,99221.19
2022-11-16T03:57:38.512Z,99209.78
2022-11-16T04:00:07.704Z,99216.47
2022-11-16T04:02:36.821Z,99210.06
2022-11-16T04:05:22.438Z,99205.22
2022-11-16T04:08:07.760Z,99209.94
2022-11-16T04:10:53.096Z,99203.63
2022-11-16T04:13:43.911Z,99210.78
2022-11-16T04:16:29.125Z,99217.09
2022-11-16T04:19:15.598Z,99208.38
2022-11-16T04:22:04.873Z,99204.00
2022-11-16T04:24:37.076Z,99208.97
2022-11-16T04:27:26.339Z,99217.44
2022-11-16T04:29:55.245Z,99228.41
2022-11-16T04:32:40.304Z,99216.75
2022-11-16T04:35:42.266Z,99216.13
2022-11-16T04:38:10.030Z,99227.44
2022-11-16T04:40:37.848Z,99211.41
2022-11-16T04:43:06.052Z,99215.91
2022-11-16T04:45:56.846Z,99208.28
2022-11-16T04:48:24.521Z,99214.28
2022-11-16T04:50:53.601Z,99203.00
2022-11-16T04:53:22.589Z,99208.00
2022-11-16T04:55:51.081Z,99204.47
2022-11-16T04:58:18.889Z,99204.22
2022-11-16T05:00:46.610Z,99191.09
2022-11-16T05:03:14.364Z,99190.25
2022-11-16T05:05:42.045Z,99193.75
2022-11-16T05:08:11.180Z,99188.91
2022-11-16T05:10:38.875Z,99188.41
2022-11-16T05:13:06.611Z,99196.19
2022-11-16T05:15:34.333Z,99186.59
2022-11-16T05:18:02.011Z,99187.19
2022-11-16T05:20:47.078Z,99192.94
2022-11-16T05:23:30.070Z,99200.09
2022-11-16T05:25:57.754Z,99200.69
2022-11-16T05:28:25.444Z,99212.84
2022-11-16T05:30:53.154Z,99211.50
2022-11-16T05:33:20.849Z,99214.44
2022-11-16T05:35:50.763Z,99224.88
2022-11-16T05:38:20.049Z,99231.31
2022-11-16T05:40:47.766Z,99237.66
2022-11-16T05:43:16.666Z,99256.97
2022-11-16T05:45:44.508Z,99259.03
2022-11-16T05:48:12.185Z,99259.38
2022-11-16T05:50:42.725Z,99259.38
2022-11-16T05:53:11.011Z,99251.13
2022-11-16T05:55:40.123Z,99251.13
2022-11-16T05:58:07.799Z,99249.56
2022-11-16T06:00:35.496Z,99253.56
2022-11-16T06:03:03.229Z,99238.97
2022-11-16T06:05:31.131Z,99235.69
2022-11-16T06:07:59.573Z,99227.66
2022-11-16T06:10:27.473Z,99230.09
2022-11-16T06:12:56.545Z,99230.72
2022-11-16T06:15:24.249Z,99248.44
2022-11-16T06:17:51.935Z,99253.31
2022-11-16T06:20:19.860Z,99236.44
2022-11-16T06:22:47.562Z,99221.72
2022-11-16T06:25:15.262Z,99219.53
2022-11-16T06:27:42.975Z,99218.44
2022-11-16T06:30:12.278Z,99218.56
2022-11-16T06:32:40.010Z,99229.03
2022-11-16T06:35:08.471Z,99216.97
2022-11-16T06:37:36.156Z,99218.31
2022-11-16T06:40:04.620Z,99223.66
2022-11-16T06:42:32.381Z,99232.44
2022-11-16T06:45:00.133Z,99228.75
2022-11-16T06:47:29.199Z,99235.09
2022-11-16T06:49:56.890Z,99230.81
2022-11-16T06:52:24.608Z,99237.13
2022-11-16T06:54:52.262Z,99248.47
2022-11-16T06:57:19.968Z,99255.28
2022-11-16T06:59:47.993Z,99259.38
2022-11-16T07:02:16.697Z,99259.19
2022-11-16T07:04:45.799Z,99254.28
2022-11-16T07:07:13.668Z,99256.50
2022-11-16T07:09:41.399Z,99253.84
2022-11-16T07:12:09.123Z,99257.22
2022-11-16T07:14:36.823Z,99252.84
2022-11-16T07:17:09.313Z,99257.09
2022-11-16T07:19:37.735Z,99245.28
2022-11-16T07:22:06.909Z,99255.66
2022-11-16T07:24:34.632Z,99261.84
2022-11-16T07:27:02.510Z,99253.91
2022-11-16T07:29:31.277Z,99260.88
2022-11-16T07:31:59.006Z,99252.22
2022-11-16T07:34:27.360Z,99246.38
2022-11-16T07:36:55.092Z,99247.00
2022-11-16T07:39:24.150Z,99245.03
2022-11-16T07:41:53.514Z,99252.97
2022-11-16T07:44:21.355Z,99250.88
2022-11-16T07:46:49.147Z,99250.28
2022-11-16T07:49:20.334Z,99241.16
2022-11-16T07:51:48.323Z,99240.31
2022-11-16T07:54:17.042Z,99250.16
2022-11-16T07:56:46.188Z,99247.72
2022-11-16T07:59:14.021Z,99240.91
2022-11-16T08:01:41.826Z,99245.25
2022-11-16T08:04:09.563Z,99247.81
2022-11-16T08:06:37.351Z,99243.59
2022-11-16T08:09:05.203Z,99247.94
2022-11-16T08:11:33.038Z,99244.41
2022-11-16T08:14:02.153Z,99244.50
2022-11-16T08:16:30.010Z,99245.69
2022-11-16T08:18:57.687Z,99244.47
2022-11-16T08:21:25.439Z,99264.09
2022-11-16T08:23:58.175Z,99255.78
2022-11-16T08:26:26.421Z,99247.34
2022-11-16T08:28:56.416Z,99254.41
2022-11-16T08:31:28.064Z,99258.41
2022-11-16T08:33:56.522Z,99260.78
2022-11-16T08:36:24.845Z,99252.81
2022-11-16T08:38:53.750Z,99245.22
2022-11-16T08:41:22.180Z,99235.44
2022-11-16T08:43:50.676Z,99248.81
2022-11-16T08:46:18.831Z,99242.94
2022-11-16T08:48:48.179Z,99242.19
2022-11-16T08:51:19.505Z,99243.34
2022-11-16T08:53:49.140Z,99239.19
2022-11-16T08:56:18.657Z,99239.75
2022-11-16T08:58:49.425Z,99238.47
2022-11-16T09:01:21.192Z,99232.22
2022-11-16T09:03:50.787Z,99236.84
2022-11-16T09:06:19.021Z,99233.13
2022-11-16T09:08:48.068Z,99240.41
2022-11-16T09:11:17.722Z,99248.50
2022-11-16T09:13:46.274Z,99241.25
2022-11-16T09:16:16.489Z,99247.56
2022-11-16T09:18:46.271Z,99230.88
2022-11-16T09:21:18.917Z,99232.00
2022-11-16T09:23:47.217Z,99238.69
2022-11-16T09:26:15.147Z,99239.41
2022-11-16T09:28:43.544Z,99246.19
2022-11-16T09:31:11.568Z,99258.28
2022-11-16T09:33:39.271Z,99254.78
2022-11-16T09:36:09.560Z,99248.94
2022-11-16T09:39:13.328Z,99259.19
2022-11-16T09:41:59.160Z,99244.34
2022-11-16T09:44:59.425Z,99247.03
2022-11-16T09:47:40.450Z,99239.34
2022-11-16T09:50:17.306Z,99229.75
2022-11-16T09:52:49.460Z,99226.88
2022-11-16T09:55:26.634Z,99225.75
2022-11-16T09:57:58.052Z,99227.25
2022-11-16T10:00:26.992Z,99223.78
2022-11-16T10:03:02.581Z,99214.28
2022-11-16T10:05:36.410Z,99212.28
2022-11-16T10:08:12.570Z,99205.44
2022-11-16T10:10:51.592Z,99204.09
2022-11-16T10:13:29.396Z,99195.69
2022-11-16T10:16:07.301Z,99183.78
2022-11-16T10:18:48.495Z,99179.34
2022-11-16T10:21:30.148Z,99175.06
2022-11-16T10:24:14.169Z,99160.56
2022-11-16T10:26:51.325Z,99163.41
2022-11-16T10:29:33.606Z,99168.94
2022-11-16T10:32:13.502Z,99158.34
2022-11-16T10:34:46.769Z,99146.91
2022-11-16T10:37:14.845Z,99142.50
2022-11-16T10:39:42.837Z,99139.50
2022-11-16T10:42:18.146Z,99138.53
2022-11-16T10:44:48.736Z,99134.88
2022-11-16T10:47:21.865Z,99129.47
2022-11-16T10:49:57.035Z,99115.69
2022-11-16T10:52:25.206Z,99119.31
2022-11-16T10:54:53.508Z,99099.88
2022-11-16T10:57:24.837Z,99092.97
2022-11-16T10:59:55.648Z,99091.41
2022-11-16T11:02:35.469Z,99069.53
2022-11-16T11:05:15.346Z,99072.50
2022-11-16T11:07:47.803Z,99072.78
2022-11-16T11:10:29.968Z,99067.47
2022-11-16T11:13:21.940Z,99056.19
2022-11-16T11:15:51.300Z,99048.03
2022-11-16T11:18:26.031Z,99037.84
2022-11-16T11:21:07.186Z,99042.94
2022-11-16T11:23:44.444Z,99032.50
2022-11-16T11:26:34.893Z,99018.91
2022-11-16T11:29:21.330Z,99008.50
2022-11-16T11:31:52.524Z,99014.41
2022-11-16T11:34:22.922Z,99009.06
2022-11-16T11:36:53.702Z,99016.22
2022-11-16T11:39:36.452Z,99012.31
2022-11-16T11:42:08.378Z,99017.66
2022-11-16T11:44:50.452Z,99006.22
2022-11-16T11:50:21.997Z,98981.09
2022-11-16T11:53:08.675Z,98981.22
2022-11-16T11:55:36.389Z,98965.81
2022-11-16T11:58:06.862Z,98962.69
2022-11-16T12:00:56.151Z,98950.44
2022-11-16T12:03:44.580Z,98945.19
2022-11-16T12:06:23.547Z,98933.06
2022-11-16T12:09:08.928Z,98924.31
2022-11-16T12:11:50.565Z,98918.97
2022-11-16T12:14:30.213Z,98913.88
2022-11-16T12:17:09.928Z,98895.50
2022-11-16T12:19:59.469Z,98891.28
2022-11-16T12:22:47.257Z,98899.78
2022-11-16T12:25:25.407Z,98896.38
2022-11-16T12:28:08.048Z,98890.72
2022-11-16T12:30:47.501Z,98872.09
2022-11-16T12:33:29.122Z,98866.75
2022-11-16T12:36:03.515Z,98851.19
2022-11-16T12:38:42.104Z,98853.16
2022-11-16T12:41:33.612Z,98826.34
2022-11-16T12:44:02.900Z,98815.41
2022-11-16T12:46:39.880Z,98801.13
2022-11-16T12:49:48.708Z,98787.66
2022-11-16T12:52:37.453Z,98776.44
2022-11-16T12:55:25.983Z,98767.72
2022-11-16T12:58:17.064Z,98737.84
2022-11-16T13:00:54.626Z,98728.38
2022-11-16T13:03:29.936Z,98732.81
2022-11-16T13:06:03.322Z,98713.84
2022-11-16T13:08:37.031Z,98713.63
2022-11-16T13:11:12.899Z,98689.75
2022-11-16T13:13:45.787Z,98683.06
2022-11-16T13:16:18.036Z,98668.13
2022-11-16T13:18:45.952Z,98661.28
2022-11-16T13:21:26.080Z,98641.63
2022-11-16T13:24:07.879Z,98630.78
2022-11-16T13:26:42.976Z,98603.72
2022-11-16T13:29:20.173Z,98581.91
2022-11-16T13:31:53.073Z,98569.88
2022-11-16T13:34:25.780Z,98544.00
2022-11-16T13:36:54.991Z,98549.84
2022-11-16T13:40:01.532Z,98534.50
2022-11-16T13:42:31.577Z,98523.09
2022-11-16T13:45:07.935Z,98528.84
2022-11-16T13:47:37.951Z,98526.47
2022-11-16T13:50:08.092Z,98517.44
2022-11-16T13:53:28.379Z,98515.03
2022-11-16T13:55:34.144Z,98483.78
2022-11-16T13:58:06.113Z,98476.69
2022-11-16T14:00:35.679Z,98464.38
2022-11-16T14:03:39.365Z,98443.31
2022-11-16T14:06:31.718Z,98431.91
2022-11-16T14:09:00.518Z,98428.25
2022-11-16T14:11:34.601Z,98412.78
2022-11-16T14:14:06.588Z,98394.22
2022-11-16T14:16:45.781Z,98373.47
2022-11-16T14:19:51.936Z,98368.94
2022-11-16T14:22:41.366Z,98351.47
2022-11-16T14:25:20.178Z,98332.66
2022-11-16T14:27:55.437Z,98322.38
2022-11-16T14:30:27.051Z,98316.06
2022-11-16T14:32:56.998Z,98301.97
2022-11-16T14:35:30.960Z,98294.72
2022-11-16T14:38:00.426Z,98285.22
2022-11-16T14:40:28.628Z,98281.06
2022-11-16T14:43:15.916Z,98281.31
2022-11-16T14:45:49.233Z,98274.81
2022-11-16T14:48:19.416Z,98266.88
2022-11-16T14:51:00.067Z,98261.59
2022-11-16T14:53:29.781Z,98259.88
2022-11-16T14:56:08.105Z,98243.56
2022-11-16T14:58:36.918Z,98235.13
2022-11-16T15:01:08.814Z,98214.69
2022-11-16T15:03:42.280Z,98219.06
2022-11-16T15:06:10.373Z,98208.22
2022-11-16T15:08:43.761Z,98200.47
2022-11-16T15:11:15.020Z,98190.41
2022-11-16T15:13:46.721Z,98182.38
2022-11-16T15:16:19.401Z,98167.78
2022-11-16T15:18:58.210Z,98168.66
2022-11-16T15:21:26.871Z,98174.84
2022-11-16T15:24:23.481Z,98151.00
2022-11-16T15:26:42.505Z,98148.50
2022-11-16T15:29:16.558Z,98149.41
2022-11-16T15:31:46.487Z,98136.59
2022-11-16T15:34:17.191Z,98138.84
2022-11-16T15:36:45.242Z,98109.50
2022-11-16T15:39:17.764Z,98112.88
2022-11-16T15:41:46.136Z,98120.94
2022-11-16T15:44:17.060Z,98107.72
2022-11-16T15:46:48.785Z,98095.91
2022-11-16T15:49:26.803Z,98114.84
2022-11-16T15:51:54.577Z,98099.47
2022-11-16T15:54:27.551Z,98097.94
2022-11-16T15:56:57.562Z,98088.56
2022-11-16T15:59:29.040Z,98092.72
2022-11-16T16:01:58.354Z,98091.91
2022-11-16T16:04:27.333Z,98070.59
2022-11-16T16:06:57.142Z,98057.50
2022-11-16T16:09:27.632Z,98057.84
2022-11-16T16:11:56.911Z,98056.50
2022-11-16T16:14:30.186Z,98061.56
2022-11-16T16:17:00.363Z,98060.84
2022-11-16T16:19:37.636Z,98062.53
2022-11-16T16:22:13.101Z,98051.81
2022-11-16T16:24:44.100Z,98058.53
2022-11-16T16:27:14.901Z,98070.59
2022-11-16T16:29:43.205Z,98067.22
2022-11-16T16:32:21.973Z,98075.28
2022-11-16T16:34:49.824Z,98062.91
2022-11-16T16:37:18.546Z,98053.78
2022-11-16T16:39:46.476Z,98061.00
2022-11-16T16:42:15.759Z,98047.75
2022-11-16T16:44:45.500Z,98033.84
2022-11-16T16:47:13.448Z,98043.72
2022-11-16T16:49:42.589Z,98026.88
2022-11-16T16:52:12.968Z,98026.56
2022-11-16T16:54:40.977Z,98024.38
2022-11-16T16:57:14.243Z,98023.25
2022-11-16T16:59:41.943Z,98007.09
2022-11-16T17:02:11.339Z,98008.47
2022-11-16T17:04:39.091Z,97995.53
2022-11-16T17:07:08.239Z,97997.91
2022-11-16T17:09:35.969Z,97998.59
2022-11-16T17:12:03.685Z,98008.22
2022-11-16T17:14:31.465Z,98008.06
2022-11-16T17:17:00.111Z,97994.59
2022-11-16T17:19:28.990Z,98004.97
2022-11-16T17:21:56.937Z,98026.56
2022-11-16T17:24:26.073Z,97997.75
2022-11-16T17:26:53.790Z,98039.56
2022-11-16T17:29:21.478Z,98037.91
2022-11-16T17:31:49.308Z,98049.69
2022-11-16T17:34:17.015Z,98045.25
2022-11-16T17:36:44.839Z,98040.38
2022-11-16T17:39:12.697Z,98065.34
2022-11-16T17:41:41.905Z,98069.22
2022-11-16T17:44:09.665Z,98070.53
2022-11-16T17:46:37.363Z,98056.66
2022-11-16T17:49:05.220Z,98058.16
2022-11-16T17:51:32.908Z,98063.69
2022-11-16T17:54:00.850Z,98083.97
2022-11-16T17:56:29.714Z,98087.38
2022-11-16T17:58:59.261Z,98093.88
2022-11-16T18:01:27.904Z,98092.66
2022-11-16T18:03:55.788Z,98091.69
2022-11-16T18:06:24.956Z,98084.63
2022-11-16T18:08:52.948Z,98093.16
2022-11-16T18:11:22.429Z,98091.78
2022-11-16T18:13:53.753Z,98090.16
2022-11-16T18:16:24.471Z,98077.56
2022-11-16T18:18:57.133Z,98084.47
2022-11-16T18:21:25.505Z,98089.69
2022-11-16T18:23:53.700Z,98092.34
2022-11-16T18:26:23.563Z,98101.81
2022-11-16T18:28:53.842Z,98104.72
2022-11-16T18:31:24.454Z,98112.47
2022-11-16T18:33:52.962Z,98114.28
2022-11-16T18:36:22.335Z,98122.19
2022-11-16T18:38:50.227Z,98124.50
2022-11-16T18:41:20.800Z,98119.03
2022-11-16T18:43:52.153Z,98117.00
2022-11-16T18:46:20.606Z,98117.81
2022-11-16T18:48:49.743Z,98121.22
2022-11-16T18:51:18.856Z,98119.44
2022-11-16T18:53:47.037Z,98126.13
2022-11-16T18:56:14.999Z,98124.88
2022-11-16T18:58:50.273Z,98093.56
2022-11-16T19:01:20.912Z,98122.66
2022-11-16T19:03:50.522Z,98121.94
2022-11-16T19:06:18.619Z,98132.84
2022-11-16T19:08:52.132Z,98121.28
2022-11-16T19:11:21.980Z,98132.13
2022-11-16T19:13:54.500Z,98106.50
2022-11-16T19:16:22.664Z,98115.13
2022-11-16T19:18:51.868Z,98118.09
2022-11-16T19:21:21.756Z,98127.50
2022-11-16T19:23:51.049Z,98118.78
2022-11-16T19:26:20.684Z,98115.31
2022-11-16T19:28:50.428Z,98111.47
2022-11-16T19:31:20.401Z,98115.81
2022-11-16T19:33:48.490Z,98112.00
2022-11-16T19:36:18.707Z,98107.88
2022-11-16T19:38:48.617Z,98102.03
2022-11-16T19:41:17.706Z,98112.78
2022-11-16T19:43:45.481Z,98095.72
2022-11-16T19:46:16.494Z,98090.88
2022-11-16T19:48:44.841Z,98095.97
2022-11-16T19:51:17.583Z,98094.69
2022-11-16T19:53:46.906Z,98091.91
2022-11-16T19:56:16.492Z,98098.50
2022-11-16T19:58:44.826Z,98082.06
2022-11-16T20:01:14.805Z,98100.28
2022-11-16T20:03:42.875Z,98079.59
2022-11-16T20:06:12.958Z,98074.53
2022-11-16T20:08:42.668Z,98083.09
2022-11-16T20:11:17.504Z,98083.09
2022-11-16T20:13:45.339Z,98076.25
2022-11-16T20:16:14.128Z,98077.94
2022-11-16T20:18:43.549Z,98066.88
2022-11-16T20:21:14.804Z,98061.53
2022-11-16T20:23:44.537Z,98076.28
2022-11-16T20:26:13.679Z,98073.84
2022-11-16T20:28:44.034Z,98059.59
2022-11-16T20:31:13.687Z,98076.28
2022-11-16T20:33:42.460Z,98067.16
2022-11-16T20:36:12.255Z,98058.13
2022-11-16T20:38:40.848Z,98065.19
2022-11-16T20:41:10.237Z,98067.22
2022-11-16T20:43:39.280Z,98056.44
2022-11-16T20:46:09.431Z,98061.47
2022-11-16T20:48:37.353Z,98073.19
2022-11-16T20:51:05.376Z,98072.53
2022-11-16T20:53:33.819Z,98065.16
2022-11-16T20:56:03.122Z,98085.09
2022-11-16T20:58:31.306Z,98083.59
2022-11-16T21:01:00.862Z,98082.41
2022-11-16T21:03:30.044Z,98086.56
2022-11-16T21:05:57.793Z,98093.25
2022-11-16T21:08:25.933Z,98097.72
2022-11-16T21:10:53.704Z,98101.16
2022-11-16T21:13:40.237Z,98098.91
2022-11-16T21:16:11.274Z,98117.16
2022-11-16T21:18:40.867Z,98112.28
2022-11-16T21:21:11.296Z,98116.09
2022-11-16T21:23:41.055Z,98109.97
2022-11-16T21:26:12.175Z,98132.47
2022-11-16T21:28:40.253Z,98121.03
2022-11-16T21:31:10.739Z,98126.91
2022-11-16T21:33:39.809Z,98124.69
2022-11-16T21:36:09.326Z,98138.81
2022-11-16T21:38:37.114Z,98152.34
2022-11-16T21:41:06.251Z,98140.16
2022-11-16T21:43:36.097Z,98147.84
2022-11-16T21:46:05.737Z,98149.31
2022-11-16T21:48:34.154Z,98137.81
2022-11-16T21:51:04.221Z,98166.28
2022-11-16T21:53:32.611Z,98180.59
2022-11-16T21:56:00.819Z,98189.28
2022-11-16T21:58:28.859Z,98180.53
2022-11-16T22:00:57.264Z,98193.97
2022-11-16T22:03:25.979Z,98189.97
2022-11-16T22:06:12.002Z,98205.25
2022-11-16T22:08:41.532Z,98214.59
2022-11-16T22:11:09.947Z,98221.53
2022-11-16T22:13:38.959Z,98210.66
2022-11-16T22:16:07.545Z,98229.00
2022-11-16T22:18:35.334Z,98243.94
2022-11-16T22:21:03.444Z,98230.69
2022-11-16T22:23:31.333Z,98242.16
2022-11-16T22:26:03.920Z,98252.19
2022-11-16T22:28:32.063Z,98253.94
2022-11-16T22:31:01.331Z,98265.59
2022-11-16T22:33:29.383Z,98278.19
2022-11-16T22:35:57.290Z,98282.31
2022-11-16T22:38:25.018Z,98285.78
2022-11-16T22:40:54.448Z,98307.97
2022-11-16T22:43:25.852Z,98304.66
2022-11-16T22:45:57.972Z,98318.81
2022-11-16T22:48:30.162Z,98312.50
2022-11-16T22:51:03.488Z,98328.91
2022-11-16T22:53:31.104Z,98335.69
2022-11-16T22:56:04.761Z,98345.78
2022-11-16T22:58:33.865Z,98332.78
2022-11-16T23:01:01.653Z,98311.34
2022-11-16T23:03:29.561Z,98327.16
2022-11-16T23:05:57.487Z,98325.22
2022-11-16T23:08:25.739Z,98339.22
2022-11-16T23:11:19.012Z,98351.19
2022-11-16T23:14:06.121Z,98349.19
2022-11-16T23:16:34.226Z,98350.38
2022-11-16T23:19:02.125Z,98351.91
2022-11-16T23:21:47.407Z,98368.09
2022-11-16T23:24:33.784Z,98372.59
2022-11-16T23:27:20.956Z,98378.75
2022-11-16T23:29:50.428Z,98393.38
2022-11-16T23:32:18.124Z,98402.38
2022-11-16T23:34:45.813Z,98396.09
2022-11-16T23:37:13.457Z,98416.22
2022-11-16T23:39:41.218Z,98405.47
2022-11-16T23:42:26.588Z,98420.16
2022-11-16T23:44:55.743Z,98420.72
2022-11-16T23:47:23.601Z,98428.34
2022-11-16T23:49:51.387Z,98430.66
2022-11-16T23:52:19.169Z,98426.13
2022-11-16T23:54:46.855Z,98430.28
2022-11-16T23:57:14.632Z,98441.91
2022-11-16T23:59:42.393Z,98433.88
